Terminal Aerodrome Forecast
Issued by NWS New Orleans/Baton Rouge, LA

Home | Current Version | Previous Version | Text Only | Print | Product List | Glossary On
Versions: 1 2 3 4 5 6 7 8 9 10 11 12 13 14 15 16
000
FTUS44 KLIX 191404 AAA
TAFNEW
TAF AMD
KNEW 191404Z 1914/2012 04008KT 1/4SM FG VV002
      TEMPO 1914/1915 3SM BR BKN005
     FM191500 10005KT P6SM SCT060
     FM200600 12006KT 5SM BR BKN015=

USA.gov is the U.S. government's official web portal to all federal, state and local government web resources and services.